createdAt,value
2018-12-29T00:02:07.748Z,101885.97
2018-12-29T00:04:38.820Z,101885.78
2018-12-29T00:07:09.731Z,101888.09
2018-12-29T00:09:40.654Z,101885.37
2018-12-29T00:12:11.560Z,101885.19
2018-12-29T00:14:42.471Z,101886.02
2018-12-29T00:17:13.383Z,101887.93
2018-12-29T00:19:47.739Z,101890.73
2018-12-29T00:22:19.054Z,101889.19
2018-12-29T00:24:52.966Z,101887.66
2018-12-29T00:27:24.164Z,101888.14
2018-12-29T00:29:55.171Z,101889.27
2018-12-29T00:32:26.114Z,101894.17
2018-12-29T00:34:57.095Z,101889.40
2018-12-29T00:37:28.030Z,101895.25
2018-12-29T00:39:58.946Z,101895.55
2018-12-29T00:42:29.912Z,101899.58
2018-12-29T00:45:02.584Z,101897.28
2018-12-29T00:47:33.496Z,101894.03
2018-12-29T00:50:04.448Z,101898.63
2018-12-29T00:52:35.382Z,101904.17
2018-12-29T00:55:06.304Z,101907.00
2018-12-29T00:57:37.233Z,101909.04
2018-12-29T01:00:08.823Z,101912.03
2018-12-29T01:02:39.778Z,101911.25
2018-12-29T01:05:10.776Z,101913.84
2018-12-29T01:07:41.691Z,101915.45
2018-12-29T01:10:12.599Z,101912.29
2018-12-29T01:12:43.513Z,101919.01
2018-12-29T01:15:14.505Z,101917.02
2018-12-29T01:17:45.808Z,101914.89
2018-12-29T01:20:16.958Z,101917.09
2018-12-29T01:22:47.852Z,101920.83
2018-12-29T01:25:18.775Z,101919.27
2018-12-29T01:27:49.694Z,101923.69
2018-12-29T01:30:20.604Z,101918.41
2018-12-29T01:32:51.533Z,101921.39
2018-12-29T01:35:22.452Z,101922.13
2018-12-29T01:37:53.359Z,101924.81
2018-12-29T01:40:24.269Z,101926.07
2018-12-29T01:42:55.205Z,101918.58
2018-12-29T01:45:26.112Z,101924.20
2018-12-29T01:47:57.037Z,101929.02
2018-12-29T01:50:27.931Z,101921.52
2018-12-29T01:52:58.823Z,101930.41
2018-12-29T01:55:29.744Z,101922.65
2018-12-29T01:58:00.664Z,101921.00
2018-12-29T02:00:31.573Z,101923.52
2018-12-29T02:03:02.492Z,101926.20
2018-12-29T02:05:33.390Z,101923.04
2018-12-29T02:08:04.299Z,101925.42
2018-12-29T02:10:35.344Z,101923.34
2018-12-29T02:13:06.323Z,101920.14
2018-12-29T02:15:37.288Z,101919.30
2018-12-29T02:18:08.206Z,101916.70
2018-12-29T02:20:39.114Z,101914.59
2018-12-29T02:23:10.014Z,101915.36
2018-12-29T02:25:40.915Z,101917.11
2018-12-29T02:28:11.847Z,101920.05
2018-12-29T02:30:42.819Z,101916.11
2018-12-29T02:33:13.902Z,101916.80
2018-12-29T02:35:44.854Z,101919.09
2018-12-29T02:38:15.840Z,101912.98
2018-12-29T02:40:46.740Z,101915.11
2018-12-29T02:43:17.654Z,101903.41
2018-12-29T02:45:48.594Z,101901.59
2018-12-29T02:48:19.574Z,101896.22
2018-12-29T02:50:50.531Z,101890.76
2018-12-29T02:53:21.449Z,101890.45
2018-12-29T02:55:52.374Z,101892.66
2018-12-29T02:58:23.292Z,101887.20
2018-12-29T03:00:54.242Z,101894.19
2018-12-29T03:03:25.152Z,101892.62
2018-12-29T03:05:56.095Z,101891.97
2018-12-29T03:08:27.036Z,101892.62
2018-12-29T03:10:58.014Z,101894.05
2018-12-29T03:13:29.962Z,101894.66
2018-12-29T03:16:01.690Z,101892.23
2018-12-29T03:18:32.679Z,101884.27
2018-12-29T03:21:03.580Z,101886.60
2018-12-29T03:23:34.504Z,101883.14
2018-12-29T03:26:05.462Z,101879.11
2018-12-29T03:28:36.389Z,101867.50
2018-12-29T03:31:07.377Z,101868.15
2018-12-29T03:33:38.395Z,101869.49
2018-12-29T03:36:09.300Z,101862.12
2018-12-29T03:38:40.252Z,101856.36
2018-12-29T03:41:11.184Z,101864.89
2018-12-29T03:43:42.133Z,101861.73
2018-12-29T03:46:13.070Z,101863.16
2018-12-29T03:48:44.032Z,101865.77
2018-12-29T03:51:14.950Z,101858.78
2018-12-29T03:53:45.961Z,101858.39
2018-12-29T03:56:16.879Z,101858.22
2018-12-29T03:58:47.831Z,101862.03
2018-12-29T04:01:18.812Z,101866.84
2018-12-29T04:03:49.776Z,101863.11
2018-12-29T04:06:20.684Z,101864.55
2018-12-29T04:09:27.662Z,101866.02
2018-12-29T04:11:58.599Z,101865.71
2018-12-29T04:14:29.507Z,101860.99
2018-12-29T04:17:00.425Z,101861.20
2018-12-29T04:19:31.322Z,101865.23
2018-12-29T04:22:02.303Z,101870.82
2018-12-29T04:24:33.227Z,101866.02
2018-12-29T04:27:04.138Z,101863.63
2018-12-29T04:29:35.061Z,101865.18
2018-12-29T04:32:05.985Z,101867.66
2018-12-29T04:34:36.984Z,101858.34
2018-12-29T04:37:07.924Z,101859.98
2018-12-29T04:39:38.901Z,101865.56
2018-12-29T04:42:09.840Z,101865.18
2018-12-29T04:44:40.748Z,101864.52
2018-12-29T04:47:11.678Z,101867.52
2018-12-29T04:49:42.616Z,101873.27
2018-12-29T04:52:13.572Z,101866.64
2018-12-29T04:54:44.477Z,101872.14
2018-12-29T04:57:15.392Z,101869.84
2018-12-29T04:59:46.307Z,101869.55
2018-12-29T05:02:17.259Z,101873.57
2018-12-29T05:04:48.137Z,101876.73
2018-12-29T05:07:19.046Z,101878.08
2018-12-29T05:09:49.948Z,101869.24
2018-12-29T05:12:20.859Z,101869.93
2018-12-29T05:14:51.790Z,101870.31
2018-12-29T05:17:22.709Z,101881.75
2018-12-29T05:19:53.627Z,101877.91
2018-12-29T05:22:24.557Z,101875.60
2018-12-29T05:24:55.461Z,101870.31
2018-12-29T05:27:26.380Z,101878.47
2018-12-29T05:29:57.345Z,101881.34
2018-12-29T05:32:28.325Z,101872.80
2018-12-29T05:34:59.241Z,101870.97
2018-12-29T05:37:30.190Z,101879.60
2018-12-29T05:40:01.090Z,101878.26
2018-12-29T05:42:32.000Z,101875.88
2018-12-29T05:45:03.716Z,101883.45
2018-12-29T05:47:34.716Z,101881.34
2018-12-29T05:50:06.018Z,101880.86
2018-12-29T05:52:37.978Z,101882.29
2018-12-29T05:55:08.911Z,101880.77
2018-12-29T05:57:39.832Z,101879.99
2018-12-29T06:00:10.819Z,101883.84
2018-12-29T06:02:41.790Z,101886.53
2018-12-29T06:05:12.708Z,101885.66
2018-12-29T06:07:43.640Z,101889.05
2018-12-29T06:10:14.550Z,101887.87
2018-12-29T06:12:45.451Z,101885.40
2018-12-29T06:15:16.356Z,101887.61
2018-12-29T06:17:47.273Z,101890.30
2018-12-29T06:20:18.187Z,101883.66
2018-12-29T06:22:49.110Z,101885.40
2018-12-29T06:25:20.077Z,101883.58
2018-12-29T06:27:50.980Z,101890.77
2018-12-29T06:30:21.917Z,101883.19
2018-12-29T06:32:52.820Z,101886.27
2018-12-29T06:35:23.736Z,101882.71
2018-12-29T06:37:54.674Z,101882.71
2018-12-29T06:40:25.616Z,101879.45
2018-12-29T06:42:56.543Z,101870.05
2018-12-29T06:45:27.489Z,101872.26
2018-12-29T06:47:58.473Z,101870.26
2018-12-29T06:50:29.392Z,101871.21
2018-12-29T06:53:00.305Z,101879.09
2018-12-29T06:55:31.742Z,101878.23
2018-12-29T06:58:02.753Z,101873.54
2018-12-29T07:00:36.606Z,101872.58
2018-12-29T07:03:08.520Z,101879.30
2018-12-29T07:05:39.429Z,101872.22
2018-12-29T07:08:10.358Z,101880.28
2018-12-29T07:10:41.292Z,101869.34
2018-12-29T07:13:12.248Z,101876.64
2018-12-29T07:15:43.240Z,101871.92
2018-12-29T07:18:14.174Z,101874.52
2018-12-29T07:20:45.092Z,101876.05
2018-12-29T07:23:16.074Z,101875.09
2018-12-29T07:25:47.016Z,101869.33
2018-12-29T07:28:17.936Z,101872.49
2018-12-29T07:30:48.933Z,101874.88
2018-12-29T07:33:19.874Z,101866.43
2018-12-29T07:35:52.361Z,101872.49
2018-12-29T07:38:23.322Z,101864.52
2018-12-29T07:40:54.264Z,101868.38
2018-12-29T07:43:25.204Z,101868.85
2018-12-29T07:45:56.159Z,101868.58
2018-12-29T07:48:27.090Z,101872.81
2018-12-29T07:50:58.071Z,101867.71
2018-12-29T07:53:28.992Z,101869.27
2018-12-29T07:55:59.924Z,101874.67
2018-12-29T07:58:30.937Z,101875.13
2018-12-29T08:01:01.936Z,101876.77
2018-12-29T08:03:32.849Z,101873.89
2018-12-29T08:06:03.829Z,101880.72
2018-12-29T08:08:34.831Z,101881.58
2018-12-29T08:11:05.762Z,101876.38
2018-12-29T08:13:36.762Z,101873.42
2018-12-29T08:16:07.824Z,101878.61
2018-12-29T08:18:38.833Z,101877.27
2018-12-29T08:21:09.975Z,101876.30
2018-12-29T08:23:40.958Z,101878.89
2018-12-29T08:26:14.353Z,101872.54
2018-12-29T08:28:45.316Z,101874.84
2018-12-29T08:31:16.241Z,101879.58
2018-12-29T08:33:47.240Z,101880.06
2018-12-29T08:36:18.149Z,101884.77
2018-12-29T08:38:49.133Z,101887.52
2018-12-29T08:41:20.065Z,101881.59
2018-12-29T08:43:51.031Z,101881.69
2018-12-29T08:46:21.976Z,101888.22
2018-12-29T08:48:52.896Z,101876.98
2018-12-29T08:51:23.808Z,101888.48
2018-12-29T08:53:54.842Z,101883.97
2018-12-29T08:56:25.836Z,101883.97
2018-12-29T08:58:56.754Z,101879.27
2018-12-29T09:01:27.804Z,101880.06
2018-12-29T09:03:58.838Z,101878.97
2018-12-29T09:06:29.768Z,101881.09
2018-12-29T09:09:00.705Z,101875.52
2018-12-29T09:11:33.252Z,101879.75
2018-12-29T09:14:04.248Z,101879.17
2018-12-29T09:16:35.246Z,101882.16
2018-12-29T09:19:06.312Z,101881.97
2018-12-29T09:21:37.980Z,101881.77
2018-12-29T09:24:08.930Z,101881.30
2018-12-29T09:26:39.922Z,101883.31
2018-12-29T09:29:10.857Z,101881.97
2018-12-29T09:31:41.849Z,101883.60
2018-12-29T09:34:12.825Z,101878.89
2018-12-29T09:36:44.610Z,101878.31
2018-12-29T09:39:15.727Z,101879.66
2018-12-29T09:41:46.731Z,101873.03
2018-12-29T09:44:17.734Z,101874.56
2018-12-29T09:46:48.762Z,101871.77
2018-12-29T09:49:19.770Z,101873.12
2018-12-29T09:51:50.796Z,101868.22
2018-12-29T09:54:21.803Z,101872.06
2018-12-29T09:56:52.846Z,101870.63
2018-12-29T09:59:23.777Z,101871.48
2018-12-29T10:01:54.859Z,101866.77
2018-12-29T10:04:25.801Z,101869.30
2018-12-29T10:06:57.854Z,101863.50
2018-12-29T10:09:28.962Z,101867.55
2018-12-29T10:11:59.956Z,101860.44
2018-12-29T10:14:30.874Z,101851.78
2018-12-29T10:17:01.956Z,101852.08
2018-12-29T10:19:33.051Z,101853.71
2018-12-29T10:22:04.091Z,101842.66
2018-12-29T10:24:35.361Z,101845.92
2018-12-29T10:27:06.459Z,101844.00
2018-12-29T10:29:37.493Z,101846.12
2018-12-29T10:32:11.421Z,101847.08
2018-12-29T10:34:44.058Z,101845.83
2018-12-29T10:37:17.081Z,101842.37
2018-12-29T10:39:48.181Z,101831.41
2018-12-29T10:42:19.081Z,101831.69
2018-12-29T10:44:50.319Z,101829.55
2018-12-29T10:47:21.300Z,101828.00
2018-12-29T10:49:53.330Z,101828.40
2018-12-29T10:52:24.268Z,101826.10
2018-12-29T10:54:55.220Z,101819.19
2018-12-29T10:57:26.150Z,101816.88
2018-12-29T10:59:57.168Z,101814.00
2018-12-29T11:02:28.326Z,101811.11
2018-12-29T11:04:59.702Z,101810.45
2018-12-29T11:07:30.760Z,101810.34
2018-12-29T11:10:01.839Z,101805.83
2018-12-29T11:12:33.922Z,101804.30
2018-12-29T11:15:06.092Z,101800.64
2018-12-29T11:17:42.188Z,101806.50
2018-12-29T11:20:09.856Z,101796.02
2018-12-29T11:22:40.987Z,101790.98
2018-12-29T11:25:12.041Z,101796.09
2018-12-29T11:27:43.044Z,101796.39
2018-12-29T11:30:14.232Z,101790.63
2018-12-29T11:32:45.232Z,101788.13
2018-12-29T11:35:17.256Z,101781.78
2018-12-29T11:37:49.113Z,101787.18
2018-12-29T11:40:20.067Z,101783.82
2018-12-29T11:42:51.305Z,101785.45
2018-12-29T11:45:22.263Z,101787.95
2018-12-29T11:47:53.390Z,101783.42
2018-12-29T11:50:24.378Z,101778.81
2018-12-29T11:52:55.389Z,101781.51
2018-12-29T11:55:26.380Z,101778.44
2018-12-29T11:57:57.313Z,101777.09
2018-12-29T12:00:28.418Z,101777.48
2018-12-29T12:02:59.476Z,101778.16
2018-12-29T12:05:30.538Z,101778.06
2018-12-29T12:08:01.528Z,101776.91
2018-12-29T12:10:32.578Z,101779.89
2018-12-29T12:13:03.563Z,101771.05
2018-12-29T12:15:34.541Z,101774.12
2018-12-29T12:18:05.596Z,101770.18
2018-12-29T12:20:36.574Z,101777.01
2018-12-29T12:23:07.520Z,101770.00
2018-12-29T12:25:38.561Z,101768.84
2018-12-29T12:28:09.799Z,101766.63
2018-12-29T12:30:40.742Z,101777.02
2018-12-29T12:33:11.957Z,101771.83
2018-12-29T12:35:42.883Z,101768.56
2018-12-29T12:38:14.005Z,101768.94
2018-12-29T12:40:44.944Z,101767.21
2018-12-29T12:43:16.190Z,101769.03
2018-12-29T12:45:47.796Z,101771.63
2018-12-29T12:48:18.953Z,101771.63
2018-12-29T12:50:50.265Z,101773.36
2018-12-29T12:53:21.204Z,101770.58
2018-12-29T12:55:52.318Z,101762.98
2018-12-29T12:58:24.474Z,101760.29
2018-12-29T13:00:55.543Z,101764.32
2018-12-29T13:03:27.545Z,101765.00
2018-12-29T13:05:58.495Z,101766.83
2018-12-29T13:08:29.459Z,101764.12
2018-12-29T13:11:00.445Z,101758.27
2018-12-29T13:13:31.458Z,101763.56
2018-12-29T13:16:02.450Z,101758.95
2018-12-29T13:18:33.379Z,101751.45
2018-12-29T13:21:04.313Z,101757.41
2018-12-29T13:23:35.250Z,101760.58
2018-12-29T13:26:06.659Z,101753.08
2018-12-29T13:28:37.671Z,101755.77
2018-12-29T13:31:08.594Z,101744.05
2018-12-29T13:33:39.642Z,101746.84
2018-12-29T13:36:10.572Z,101747.61
2018-12-29T13:38:41.610Z,101748.67
2018-12-29T13:41:12.572Z,101756.27
2018-12-29T13:43:43.582Z,101750.30
2018-12-29T13:46:14.522Z,101748.38
2018-12-29T13:48:45.630Z,101740.41
2018-12-29T13:51:16.497Z,101745.02
2018-12-29T13:53:47.493Z,101743.09
2018-12-29T13:56:18.465Z,101743.09
2018-12-29T13:58:49.405Z,101737.81
2018-12-29T14:01:21.101Z,101737.77
2018-12-29T14:03:52.567Z,101735.84
2018-12-29T14:06:23.854Z,101724.81
2018-12-29T14:08:55.749Z,101728.77
2018-12-29T14:11:28.479Z,101732.42
2018-12-29T14:14:00.872Z,101739.25
2018-12-29T14:16:32.193Z,101738.97
2018-12-29T14:19:04.310Z,101738.19
2018-12-29T14:21:36.218Z,101742.33
2018-12-29T14:24:07.212Z,101739.06
2018-12-29T14:26:38.164Z,101737.42
2018-12-29T14:29:12.011Z,101736.84
2018-12-29T14:31:43.854Z,101743.29
2018-12-29T14:34:14.919Z,101745.41
2018-12-29T14:36:47.862Z,101750.59
2018-12-29T14:39:21.966Z,101746.17
2018-12-29T14:41:53.399Z,101746.17
2018-12-29T14:44:29.825Z,101741.94
2018-12-29T14:47:11.169Z,101739.06
2018-12-29T14:50:31.259Z,101737.23
2018-12-29T14:53:14.209Z,101742.52
2018-12-29T14:55:46.276Z,101747.33
2018-12-29T14:58:17.728Z,101746.75
2018-12-29T15:00:48.813Z,101749.09
2018-12-29T15:03:19.793Z,101742.84
2018-12-29T15:05:50.802Z,101740.73
2018-12-29T15:08:21.814Z,101738.72
2018-12-29T15:10:53.921Z,101733.82
2018-12-29T15:13:25.291Z,101735.74
2018-12-29T15:15:56.215Z,101735.84
2018-12-29T15:18:28.536Z,101732.86
2018-12-29T15:20:59.845Z,101730.94
2018-12-29T15:23:30.819Z,101736.99
2018-12-29T15:26:02.300Z,101728.06
2018-12-29T15:28:33.238Z,101726.72
2018-12-29T15:31:04.200Z,101726.72
2018-12-29T15:33:35.514Z,101720.56
2018-12-29T15:36:06.489Z,101712.98
2018-12-29T15:38:37.485Z,101711.83
2018-12-29T15:41:08.723Z,101719.89
2018-12-29T15:43:39.684Z,101716.73
2018-12-29T15:46:10.956Z,101716.05
2018-12-29T15:48:41.877Z,101721.53
2018-12-29T15:51:12.843Z,101712.31
2018-12-29T15:53:44.244Z,101708.27
2018-12-29T15:56:16.506Z,101703.66
2018-12-29T15:58:48.269Z,101694.34
2018-12-29T16:01:20.315Z,101693.29
2018-12-29T16:03:52.727Z,101690.98
2018-12-29T16:06:24.729Z,101691.47
2018-12-29T16:08:55.776Z,101691.84
2018-12-29T16:11:27.197Z,101694.06
2018-12-29T16:13:58.416Z,101702.89
2018-12-29T16:16:29.381Z,101693.58
2018-12-29T16:19:00.481Z,101697.13
2018-12-29T16:21:31.978Z,101695.39
2018-12-29T16:24:03.142Z,101687.05
2018-12-29T16:26:34.088Z,101691.56
2018-12-29T16:29:05.072Z,101690.21
2018-12-29T16:31:36.218Z,101685.41
2018-12-29T16:34:07.577Z,101679.06
2018-12-29T16:36:38.935Z,101670.52
2018-12-29T16:39:09.975Z,101674.08
2018-12-29T16:41:41.251Z,101672.92
2018-12-29T16:44:12.325Z,101668.31
2018-12-29T16:46:43.347Z,101670.23
2018-12-29T16:49:15.056Z,101667.45
2018-12-29T16:51:46.152Z,101655.25
2018-12-29T16:54:17.181Z,101656.41
2018-12-29T16:56:48.222Z,101653.53
2018-12-29T16:59:19.219Z,101652.28
2018-12-29T17:01:50.220Z,101642.39
2018-12-29T17:04:21.216Z,101648.92
2018-12-29T17:06:52.372Z,101641.72
2018-12-29T17:09:23.714Z,101641.81
2018-12-29T17:11:54.917Z,101635.64
2018-12-29T17:14:25.942Z,101632.19
2018-12-29T17:16:56.941Z,101624.13
2018-12-29T17:19:27.870Z,101622.88
2018-12-29T17:21:58.921Z,101613.27
2018-12-29T17:24:31.198Z,101617.59
2018-12-29T17:27:02.513Z,101605.50
2018-12-29T17:29:33.477Z,101610.88
2018-12-29T17:32:04.464Z,101608.56
2018-12-29T17:34:35.524Z,101598.30
2018-12-29T17:37:06.564Z,101597.81
2018-12-29T17:39:41.219Z,101598.58
2018-12-29T17:42:12.169Z,101599.44
2018-12-29T17:44:44.293Z,101594.92
2018-12-29T17:47:15.217Z,101591.85
2018-12-29T17:49:46.170Z,101593.09
2018-12-29T17:52:17.106Z,101594.86
2018-12-29T17:54:48.122Z,101590.89
2018-12-29T17:57:19.131Z,101589.93
2018-12-29T17:59:51.140Z,101581.80
2018-12-29T18:02:22.076Z,101570.94
2018-12-29T18:04:53.025Z,101577.83
2018-12-29T18:07:24.336Z,101570.73
2018-12-29T18:09:57.333Z,101564.61
2018-12-29T18:12:27.923Z,101563.45
2018-12-29T18:14:58.864Z,101562.39
2018-12-29T18:17:29.803Z,101562.50
2018-12-29T18:20:00.766Z,101555.39
2018-12-29T18:22:31.814Z,101558.46
2018-12-29T18:25:03.035Z,101557.77
2018-12-29T18:27:34.180Z,101553.63
2018-12-29T18:30:05.388Z,101555.56
2018-12-29T18:32:36.326Z,101551.52
2018-12-29T18:35:07.288Z,101548.45
2018-12-29T18:37:38.209Z,101554.98
2018-12-29T18:40:09.872Z,101556.52
2018-12-29T18:42:40.821Z,101554.11
2018-12-29T18:45:11.788Z,101556.73
2018-12-29T18:47:42.787Z,101554.98
2018-12-29T18:50:14.127Z,101553.56
2018-12-29T18:52:47.350Z,101553.08
2018-12-29T18:55:19.366Z,101558.95
2018-12-29T18:57:50.685Z,101553.08
2018-12-29T19:00:21.622Z,101547.88
2018-12-29T19:02:52.629Z,101546.91
2018-12-29T19:05:23.744Z,101546.91
2018-12-29T19:07:54.794Z,101545.19
2018-12-29T19:10:25.726Z,101559.59
2018-12-29T19:12:56.769Z,101546.63
2018-12-29T19:15:27.995Z,101541.53
2018-12-29T19:17:59.301Z,101535.77
2018-12-29T19:20:30.607Z,101534.05
2018-12-29T19:23:01.552Z,101528.02
2018-12-29T19:25:32.518Z,101525.98
2018-12-29T19:28:03.630Z,101514.95
2018-12-29T19:30:34.947Z,101520.44
2018-12-29T19:33:06.430Z,101510.16
2018-12-29T19:35:37.397Z,101515.06
2018-12-29T19:38:08.354Z,101506.58
2018-12-29T19:40:39.733Z,101500.27
2018-12-29T19:43:10.693Z,101497.58
2018-12-29T19:45:41.610Z,101499.31
2018-12-29T19:48:12.700Z,101492.97
2018-12-29T19:50:43.638Z,101499.11
2018-12-29T19:53:14.926Z,101491.24
2018-12-29T19:55:45.885Z,101489.80
2018-12-29T19:58:16.821Z,101483.08
2018-12-29T20:00:47.797Z,101482.31
2018-12-29T20:03:19.173Z,101483.45
2018-12-29T20:05:50.479Z,101485.77
2018-12-29T20:08:21.487Z,101477.42
2018-12-29T20:10:53.328Z,101476.14
2018-12-29T20:13:24.245Z,101475.28
2018-12-29T20:15:55.296Z,101463.18
2018-12-29T20:18:26.220Z,101462.62
2018-12-29T20:20:57.186Z,101462.62
2018-12-29T20:23:28.108Z,101458.19
2018-12-29T20:26:00.144Z,101443.39
2018-12-29T20:28:31.071Z,101443.98
2018-12-29T20:31:02.072Z,101439.47
2018-12-29T20:33:33.097Z,101428.71
2018-12-29T20:36:04.048Z,101424.68
2018-12-29T20:38:36.073Z,101422.84
2018-12-29T20:41:07.034Z,101414.95
2018-12-29T20:43:38.638Z,101405.75
2018-12-29T20:46:09.605Z,101401.13
2018-12-29T20:48:40.550Z,101392.52
2018-12-29T20:51:12.207Z,101385.31
2018-12-29T20:53:43.326Z,101374.08
2018-12-29T20:56:14.311Z,101372.63
2018-12-29T20:58:45.270Z,101376.66
2018-12-29T21:01:16.239Z,101364.66
2018-12-29T21:03:47.179Z,101361.97
2018-12-29T21:06:18.476Z,101355.36
2018-12-29T21:08:49.735Z,101348.42
2018-12-29T21:11:20.720Z,101340.94
2018-12-29T21:13:51.645Z,101331.43
2018-12-29T21:16:22.576Z,101323.36
2018-12-29T21:18:54.071Z,101315.30
2018-12-29T21:21:25.227Z,101312.50
2018-12-29T21:23:56.148Z,101307.81
2018-12-29T21:26:27.833Z,101301.09
2018-12-29T21:29:01.223Z,101301.31
2018-12-29T21:31:32.255Z,101297.27
2018-12-29T21:34:03.222Z,101287.45
2018-12-29T21:36:36.207Z,101287.94
2018-12-29T21:42:33.745Z,101279.02
2018-12-29T21:45:05.059Z,101269.42
2018-12-29T21:47:36.140Z,101267.50
2018-12-29T21:50:07.768Z,101266.91
2018-12-29T21:53:00.598Z,101264.44
2018-12-29T21:55:32.256Z,101269.06
2018-12-29T21:58:03.856Z,101261.00
2018-12-29T22:00:34.851Z,101261.10
2018-12-29T22:03:06.178Z,101263.30
2018-12-29T22:05:37.242Z,101264.06
2018-12-29T22:08:08.596Z,101261.80
2018-12-29T22:10:42.249Z,101255.67
2018-12-29T22:13:18.324Z,101256.15
2018-12-29T22:15:50.087Z,101252.22
2018-12-29T22:18:21.904Z,101250.50
2018-12-29T22:20:54.565Z,101253.19
2018-12-29T22:23:25.527Z,101253.09
2018-12-29T22:26:00.571Z,101250.30
2018-12-29T22:28:34.639Z,101240.88
2018-12-29T22:31:05.698Z,101239.70
2018-12-29T22:33:36.661Z,101236.64
2018-12-29T22:36:14.610Z,101234.59
2018-12-29T22:38:48.744Z,101228.95
2018-12-29T22:41:19.726Z,101222.39
2018-12-29T22:43:54.559Z,101214.92
2018-12-29T22:46:25.643Z,101211.16
2018-12-29T22:48:57.918Z,101205.89
2018-12-29T22:51:31.317Z,101210.41
2018-12-29T22:54:02.377Z,101200.19
2018-12-29T22:56:34.075Z,101193.30
2018-12-29T22:59:06.132Z,101195.72
2018-12-29T23:01:41.453Z,101188.79
2018-12-29T23:04:18.332Z,101176.42
2018-12-29T23:06:49.809Z,101185.35
2018-12-29T23:09:40.763Z,101182.28
2018-12-29T23:12:11.879Z,101173.25
2018-12-29T23:14:44.703Z,101174.81
2018-12-29T23:17:16.471Z,101177.50
2018-12-29T23:19:47.570Z,101173.25
2018-12-29T23:22:18.613Z,101169.70
2018-12-29T23:24:49.529Z,101163.36
2018-12-29T23:27:20.530Z,101159.92
2018-12-29T23:29:51.615Z,101156.91
2018-12-29T23:32:22.669Z,101157.39
2018-12-29T23:34:53.593Z,101159.22
2018-12-29T23:37:24.629Z,101151.53
2018-12-29T23:39:56.584Z,101150.41
2018-12-29T23:42:27.547Z,101148.42
2018-12-29T23:45:02.013Z,101144.01
2018-12-29T23:47:40.511Z,101140.20
2018-12-29T23:50:11.983Z,101138.37
2018-12-29T23:52:47.813Z,101135.90
2018-12-29T23:55:21.895Z,101136.76
2018-12-29T23:57:53.914Z,101131.27
